Time;durP1;ratioP1;P1;durP2;ratioP2;P2;SDS_P1;SDS_P2;PMS_P1;PMS_P2;Temp;Humidity;BMP_temperature;BMP_pressure;BME280_temperature;BME280_humidity;BME280_pressure;Samples;Min_cycle;Max_cycle;Signal;HPM_P1;HPM_P2
2022/05/21 00:00:20;;;;;;;0.10;0.10;;;;;;;;;;5113751;28;20209;-75
2022/05/21 00:02:46;;;;;;;0.10;0.10;;;;;;;;;;5123364;28;20222;-75
2022/05/21 00:05:17;;;;;;;0.03;0.03;;;;;;;;;;5113701;28;20200;-75
2022/05/21 00:07:43;;;;;;;0.10;0.10;;;;;;;;;;5123404;28;20210;-75
2022/05/21 00:10:12;;;;;;;0.00;0.00;;;;;;;;;;5113781;28;20224;-75
2022/05/21 00:12:38;;;;;;;0.00;0.00;;;;;;;;;;5123120;28;20197;-76
2022/05/21 00:15:05;;;;;;;0.00;0.00;;;;;;;;;;5118646;28;20242;-76
2022/05/21 00:17:31;;;;;;;0.10;0.10;;;;;;;;;;5122994;28;20220;-76
2022/05/21 00:19:58;;;;;;;0.00;0.00;;;;;;;;;;5123970;28;20517;-76
2022/05/21 00:22:28;;;;;;;0.00;0.00;;;;;;;;;;5112447;28;20246;-76
2022/05/21 00:24:54;;;;;;;0.00;0.00;;;;;;;;;;5123796;28;20198;-75
2022/05/21 00:27:20;;;;;;;0.00;0.00;;;;;;;;;;5112738;28;20250;-76
2022/05/21 00:29:47;;;;;;;0.00;0.00;;;;;;;;;;5123692;28;20353;-75
2022/05/21 00:32:14;;;;;;;0.00;0.00;;;;;;;;;;5112323;28;20423;-76
2022/05/21 00:34:41;;;;;;;0.00;0.00;;;;;;;;;;5123586;28;20205;-76
2022/05/21 00:37:07;;;;;;;0.00;0.00;;;;;;;;;;5112413;28;20563;-77
2022/05/21 00:39:36;;;;;;;0.00;0.00;;;;;;;;;;5123566;28;20217;-77
2022/05/21 00:42:04;;;;;;;0.00;0.00;;;;;;;;;;5111440;28;20257;-76
2022/05/21 00:44:30;;;;;;;0.00;0.00;;;;;;;;;;5123331;28;20212;-77
2022/05/21 00:46:57;;;;;;;0.08;0.08;;;;;;;;;;5111996;28;20291;-76
2022/05/21 00:49:24;;;;;;;0.10;0.10;;;;;;;;;;5123698;28;20560;-76
2022/05/21 00:51:53;;;;;;;0.10;0.10;;;;;;;;;;5112193;28;20233;-76
2022/05/21 00:54:22;;;;;;;0.00;0.00;;;;;;;;;;5123578;28;20213;-76
2022/05/21 00:56:51;;;;;;;0.10;0.10;;;;;;;;;;5112540;28;20267;-76
2022/05/21 01:02:03;;;;;;;0.10;0.10;;;;;;;;;;5112002;28;20568;-76
2022/05/21 01:04:31;;;;;;;0.05;0.05;;;;;;;;;;5123553;28;20245;-77
2022/05/21 01:06:59;;;;;;;0.00;0.00;;;;;;;;;;5111881;28;20263;-76
2022/05/21 01:09:25;;;;;;;0.00;0.00;;;;;;;;;;5123657;28;20497;-75
2022/05/21 01:11:54;;;;;;;0.10;0.10;;;;;;;;;;5111710;28;20233;-75
2022/05/21 01:14:21;;;;;;;0.00;0.00;;;;;;;;;;5123276;28;20224;-76
2022/05/21 01:16:47;;;;;;;0.00;0.00;;;;;;;;;;5111986;28;20303;-75
2022/05/21 01:19:14;;;;;;;0.10;0.10;;;;;;;;;;5119827;28;20192;-77
2022/05/21 01:21:40;;;;;;;0.00;0.00;;;;;;;;;;5112153;28;20253;-76
2022/05/21 01:24:09;;;;;;;0.03;0.03;;;;;;;;;;5122846;28;20351;-76
2022/05/21 01:26:36;;;;;;;0.00;0.00;;;;;;;;;;5111591;28;20309;-76
2022/05/21 01:29:04;;;;;;;0.10;0.10;;;;;;;;;;5122998;28;20202;-76
2022/05/21 01:31:32;;;;;;;0.10;0.10;;;;;;;;;;5111964;28;20492;-77
2022/05/21 01:33:59;;;;;;;0.08;0.08;;;;;;;;;;5122678;28;20485;-76
2022/05/21 01:36:25;;;;;;;0.05;0.05;;;;;;;;;;5112093;28;20560;-76
2022/05/21 01:38:51;;;;;;;0.00;0.00;;;;;;;;;;5122473;28;20214;-76
2022/05/21 01:41:19;;;;;;;0.10;0.10;;;;;;;;;;5111993;28;20249;-76
2022/05/21 01:46:29;;;;;;;0.00;0.00;;;;;;;;;;5111958;28;20584;-76
2022/05/21 01:48:56;;;;;;;0.10;0.10;;;;;;;;;;5122495;28;20208;-75
2022/05/21 01:51:22;;;;;;;0.10;0.10;;;;;;;;;;5111803;28;20237;-76
2022/05/21 01:53:49;;;;;;;0.00;0.00;;;;;;;;;;5122074;28;20202;-76
2022/05/21 01:56:16;;;;;;;0.10;0.10;;;;;;;;;;5111806;28;20240;-76
2022/05/21 01:58:44;;;;;;;0.00;0.00;;;;;;;;;;5122352;28;20259;-76
2022/05/21 02:01:10;;;;;;;0.10;0.10;;;;;;;;;;5111766;28;20240;-76
2022/05/21 02:03:37;;;;;;;0.03;0.03;;;;;;;;;;5122174;28;20208;-77
2022/05/21 02:06:04;;;;;;;0.00;0.00;;;;;;;;;;5112069;28;20242;-77
2022/05/21 02:08:30;;;;;;;0.00;0.00;;;;;;;;;;5122254;28;20224;-75
2022/05/21 02:10:56;;;;;;;0.00;0.00;;;;;;;;;;5112886;28;20301;-75
2022/05/21 02:13:23;;;;;;;0.10;0.10;;;;;;;;;;5125975;28;20488;-76
2022/05/21 02:15:51;;;;;;;0.10;0.10;;;;;;;;;;5115905;28;20241;-77
2022/05/21 02:18:18;;;;;;;0.00;0.00;;;;;;;;;;5125701;28;20218;-75
2022/05/21 02:20:46;;;;;;;0.10;0.10;;;;;;;;;;5116112;27;20294;-75
2022/05/21 02:23:13;;;;;;;0.10;0.10;;;;;;;;;;5125773;28;20254;-75
2022/05/21 02:25:39;;;;;;;0.10;0.10;;;;;;;;;;5115730;28;20241;-75
2022/05/21 02:28:05;;;;;;;0.10;0.10;;;;;;;;;;5125737;28;20341;-75
2022/05/21 02:30:32;;;;;;;0.10;0.10;;;;;;;;;;5115524;28;20252;-76
2022/05/21 02:32:59;;;;;;;0.00;0.00;;;;;;;;;;5125339;28;20539;-76
2022/05/21 02:35:26;;;;;;;0.10;0.10;;;;;;;;;;5115895;28;20252;-76
2022/05/21 02:40:36;;;;;;;0.20;0.20;;;;;;;;;;5115930;28;20241;-75
2022/05/21 02:43:02;;;;;;;0.00;0.00;;;;;;;;;;5125267;28;20197;-76
2022/05/21 02:45:29;;;;;;;0.07;0.07;;;;;;;;;;5115725;28;20248;-75
2022/05/21 02:47:55;;;;;;;0.00;0.00;;;;;;;;;;5124806;28;20204;-75
2022/05/21 02:50:27;;;;;;;0.20;0.20;;;;;;;;;;5115497;28;20500;-75
2022/05/21 02:52:53;;;;;;;0.10;0.10;;;;;;;;;;5124725;28;20416;-76
2022/05/21 02:55:20;;;;;;;0.05;0.05;;;;;;;;;;5115104;28;20197;-75
2022/05/21 02:57:47;;;;;;;0.10;0.10;;;;;;;;;;5124824;28;20191;-76
2022/05/21 03:00:15;;;;;;;0.00;0.00;;;;;;;;;;5115497;28;20208;-76
2022/05/21 03:02:42;;;;;;;0.00;0.00;;;;;;;;;;5124476;28;20189;-76
2022/05/21 03:05:08;;;;;;;0.10;0.10;;;;;;;;;;5115269;28;20205;-75
2022/05/21 03:07:38;;;;;;;0.10;0.10;;;;;;;;;;5124312;28;20194;-75
2022/05/21 03:10:22;;;;;;;0.03;0.03;;;;;;;;;;5125656;28;20208;-77
2022/05/21 03:12:49;;;;;;;0.03;0.03;;;;;;;;;;5145354;27;20265;-75
2022/05/21 03:15:15;;;;;;;0.00;0.00;;;;;;;;;;5135186;27;20203;-75
2022/05/21 03:17:41;;;;;;;0.10;0.10;;;;;;;;;;5144628;27;20188;-75
2022/05/21 03:20:08;;;;;;;0.07;0.07;;;;;;;;;;5134808;27;20204;-75
2022/05/21 03:22:34;;;;;;;0.07;0.07;;;;;;;;;;5144083;27;20234;-75
2022/05/21 03:25:02;;;;;;;0.10;0.10;;;;;;;;;;5145886;27;20247;-75
2022/05/21 03:27:28;;;;;;;0.00;0.00;;;;;;;;;;5133794;27;20264;-75
2022/05/21 03:29:54;;;;;;;0.03;0.03;;;;;;;;;;5145684;27;20223;-75
2022/05/21 03:32:21;;;;;;;0.20;0.20;;;;;;;;;;5133656;27;20235;-75
2022/05/21 03:34:47;;;;;;;0.10;0.10;;;;;;;;;;5145511;27;20265;-74
2022/05/21 03:37:13;;;;;;;0.00;0.00;;;;;;;;;;5133705;27;20245;-76
2022/05/21 03:39:39;;;;;;;0.10;0.10;;;;;;;;;;5145225;27;20218;-75
2022/05/21 03:42:08;;;;;;;0.10;0.10;;;;;;;;;;5133412;27;20501;-75
2022/05/21 03:44:34;;;;;;;0.10;0.10;;;;;;;;;;5145358;27;20211;-73
2022/05/21 03:47:01;;;;;;;0.10;0.10;;;;;;;;;;5133297;27;20442;-74
2022/05/21 03:49:27;;;;;;;0.10;0.10;;;;;;;;;;5145273;27;20196;-76
2022/05/21 03:51:53;;;;;;;0.07;0.07;;;;;;;;;;5133424;27;20304;-75
2022/05/21 03:54:21;;;;;;;0.00;0.00;;;;;;;;;;5145140;27;20356;-75
2022/05/21 03:56:47;;;;;;;0.00;0.00;;;;;;;;;;5133309;27;20268;-74
2022/05/21 03:59:15;;;;;;;0.10;0.10;;;;;;;;;;5144406;27;20298;-75
2022/05/21 04:01:45;;;;;;;0.10;0.10;;;;;;;;;;5133376;27;20238;-74
2022/05/21 04:04:11;;;;;;;0.10;0.10;;;;;;;;;;5144556;27;20381;-75
2022/05/21 04:06:37;;;;;;;0.10;0.10;;;;;;;;;;5131039;27;20238;-75
2022/05/21 04:09:06;;;;;;;0.10;0.10;;;;;;;;;;5144563;27;20246;-75
2022/05/21 04:11:33;;;;;;;0.10;0.10;;;;;;;;;;5132416;27;20504;-75
2022/05/21 04:13:59;;;;;;;0.10;0.10;;;;;;;;;;5144308;27;20212;-76
2022/05/21 04:16:27;;;;;;;0.00;0.00;;;;;;;;;;5133206;27;20246;-75
2022/05/21 04:18:53;;;;;;;0.03;0.03;;;;;;;;;;5144549;27;20202;-75
2022/05/21 04:21:20;;;;;;;0.10;0.10;;;;;;;;;;5133180;27;20242;-75
2022/05/21 04:23:46;;;;;;;0.10;0.10;;;;;;;;;;5143985;27;20202;-74
2022/05/21 04:26:12;;;;;;;0.10;0.10;;;;;;;;;;5133020;27;20284;-75
2022/05/21 04:28:39;;;;;;;0.10;0.10;;;;;;;;;;5144003;27;20197;-75
2022/05/21 04:31:05;;;;;;;0.00;0.00;;;;;;;;;;5133177;27;20271;-75
2022/05/21 04:33:32;;;;;;;0.10;0.10;;;;;;;;;;5143791;27;20275;-75
2022/05/21 04:38:45;;;;;;;0.10;0.10;;;;;;;;;;5138152;27;20288;-75
2022/05/21 04:41:11;;;;;;;0.10;0.10;;;;;;;;;;5132832;27;20237;-74
2022/05/21 04:43:37;;;;;;;0.10;0.10;;;;;;;;;;5143809;27;20202;-75
2022/05/21 04:46:04;;;;;;;0.10;0.10;;;;;;;;;;5132306;27;20245;-75
2022/05/21 04:48:30;;;;;;;0.10;0.10;;;;;;;;;;5143455;27;20198;-74
2022/05/21 04:51:02;;;;;;;0.00;0.00;;;;;;;;;;5132934;27;20283;-75
2022/05/21 04:53:28;;;;;;;0.07;0.07;;;;;;;;;;5143249;27;20290;-76
2022/05/21 04:55:54;;;;;;;0.10;0.10;;;;;;;;;;5132693;27;20425;-76
2022/05/21 04:58:21;;;;;;;0.10;0.10;;;;;;;;;;5143292;27;20232;-76
2022/05/21 05:00:47;;;;;;;0.10;0.10;;;;;;;;;;5132983;27;20418;-74
2022/05/21 05:03:14;;;;;;;0.00;0.00;;;;;;;;;;5142946;27;20220;-75
2022/05/21 05:05:41;;;;;;;0.10;0.10;;;;;;;;;;5132219;27;20241;-75
2022/05/21 05:08:08;;;;;;;0.10;0.10;;;;;;;;;;5142896;27;20209;-74
2022/05/21 05:10:36;;;;;;;0.10;0.10;;;;;;;;;;5133211;27;20250;-75
2022/05/21 05:13:02;;;;;;;0.10;0.10;;;;;;;;;;5143106;28;20217;-75
2022/05/21 05:15:28;;;;;;;0.10;0.10;;;;;;;;;;5132546;27;20238;-75
2022/05/21 05:17:58;;;;;;;0.10;0.10;;;;;;;;;;5142974;28;20508;-75
2022/05/21 05:20:24;;;;;;;0.10;0.10;;;;;;;;;;5133255;28;20291;-75
2022/05/21 05:22:51;;;;;;;0.10;0.10;;;;;;;;;;5143115;28;20207;-76
2022/05/21 05:25:19;;;;;;;0.10;0.10;;;;;;;;;;5133064;28;20245;-74
2022/05/21 05:27:46;;;;;;;0.00;0.00;;;;;;;;;;5142622;28;20248;-75
2022/05/21 05:30:14;;;;;;;0.00;0.00;;;;;;;;;;5133079;28;20502;-76
2022/05/21 05:32:41;;;;;;;0.10;0.10;;;;;;;;;;5142807;28;20214;-76
2022/05/21 05:35:08;;;;;;;0.03;0.03;;;;;;;;;;5133295;28;20206;-75
2022/05/21 05:37:35;;;;;;;0.10;0.10;;;;;;;;;;5142304;28;20245;-75
2022/05/21 05:40:01;;;;;;;0.10;0.10;;;;;;;;;;5143423;28;20199;-75
2022/05/21 05:42:29;;;;;;;0.10;0.10;;;;;;;;;;5131661;28;20386;-75
2022/05/21 05:44:55;;;;;;;0.07;0.07;;;;;;;;;;5143778;28;20266;-74
2022/05/21 05:47:22;;;;;;;0.10;0.10;;;;;;;;;;5134972;27;20471;-74
2022/05/21 05:49:48;;;;;;;0.10;0.10;;;;;;;;;;5147773;27;20420;-75
2022/05/21 05:52:15;;;;;;;0.10;0.10;;;;;;;;;;5135737;27;20234;-75
2022/05/21 05:54:41;;;;;;;0.10;0.10;;;;;;;;;;5147765;27;20202;-75
2022/05/21 05:57:09;;;;;;;0.00;0.00;;;;;;;;;;5135599;27;20291;-74
2022/05/21 05:59:48;;;;;;;0.10;0.10;;;;;;;;;;5147622;27;20203;-74
2022/05/21 06:04:59;;;;;;;0.00;0.00;;;;;;;;;;5147648;27;20542;-76
2022/05/21 06:07:25;;;;;;;0.00;0.00;;;;;;;;;;5135449;27;20238;-76
2022/05/21 06:09:51;;;;;;;1.23;0.93;;;;;;;;;;5147579;27;20228;-76
2022/05/21 06:12:19;;;;;;;0.00;0.00;;;;;;;;;;5135420;27;20617;-75
2022/05/21 06:14:46;;;;;;;0.00;0.00;;;;;;;;;;5147435;27;20493;-75
2022/05/21 06:17:13;;;;;;;0.10;0.10;;;;;;;;;;5135328;27;20452;-75
2022/05/21 06:19:39;;;;;;;0.10;0.10;;;;;;;;;;5147213;27;20241;-74
2022/05/21 06:24:47;;;;;;;0.10;0.10;;;;;;;;;;5146589;27;20392;-76
2022/05/21 06:27:14;;;;;;;0.00;0.00;;;;;;;;;;5134640;27;20242;-75
2022/05/21 06:29:40;;;;;;;0.00;0.00;;;;;;;;;;5146772;27;20524;-74
2022/05/21 06:32:08;;;;;;;0.10;0.10;;;;;;;;;;5134911;27;20239;-74
2022/05/21 06:34:38;;;;;;;0.00;0.00;;;;;;;;;;5146790;27;20210;-74
2022/05/21 06:37:04;;;;;;;0.10;0.10;;;;;;;;;;5134724;27;20240;-73
2022/05/21 06:39:31;;;;;;;0.10;0.10;;;;;;;;;;5146648;27;20316;-74
2022/05/21 06:41:57;;;;;;;0.00;0.00;;;;;;;;;;5134022;27;20242;-76
2022/05/21 06:44:23;;;;;;;0.10;0.10;;;;;;;;;;5146169;27;20235;-75
2022/05/21 06:46:50;;;;;;;0.10;0.10;;;;;;;;;;5134607;27;20372;-74
2022/05/21 06:49:18;;;;;;;0.10;0.10;;;;;;;;;;5146184;27;20374;-75
2022/05/21 06:51:44;;;;;;;0.10;0.10;;;;;;;;;;5134668;27;20252;-75
2022/05/21 06:54:11;;;;;;;0.10;0.10;;;;;;;;;;5127795;27;20311;-75
2022/05/21 06:56:39;;;;;;;0.10;0.10;;;;;;;;;;5134585;27;20283;-74
2022/05/21 06:59:05;;;;;;;0.03;0.03;;;;;;;;;;5144936;27;20269;-75
2022/05/21 07:01:32;;;;;;;2.47;2.43;;;;;;;;;;5134443;27;20243;-75
2022/05/21 07:03:58;;;;;;;0.10;0.10;;;;;;;;;;5146019;27;20218;-76
2022/05/21 07:09:09;;;;;;;0.10;0.10;;;;;;;;;;5145909;27;20191;-75
2022/05/21 07:11:37;;;;;;;0.10;0.10;;;;;;;;;;5134373;27;20427;-75
2022/05/21 07:14:04;;;;;;;0.00;0.00;;;;;;;;;;5145559;27;20227;-74
2022/05/21 07:16:30;;;;;;;0.03;0.03;;;;;;;;;;5134432;27;20237;-74
2022/05/21 07:18:57;;;;;;;0.10;0.10;;;;;;;;;;5145277;27;20349;-74
2022/05/21 07:21:23;;;;;;;0.10;0.10;;;;;;;;;;5134621;27;20230;-74
2022/05/21 07:23:51;;;;;;;0.10;0.10;;;;;;;;;;5145318;27;20393;-73
2022/05/21 07:26:17;;;;;;;0.03;0.03;;;;;;;;;;5134089;27;20296;-73
2022/05/21 07:28:44;;;;;;;0.10;0.10;;;;;;;;;;5145136;27;20299;-75
2022/05/21 07:31:10;;;;;;;0.10;0.10;;;;;;;;;;5134340;27;20268;-75
2022/05/21 07:33:36;;;;;;;0.10;0.10;;;;;;;;;;5144946;27;20223;-75
2022/05/21 07:36:03;;;;;;;0.00;0.00;;;;;;;;;;5134244;27;20496;-75
2022/05/21 07:38:29;;;;;;;0.10;0.10;;;;;;;;;;5144941;27;20212;-75
2022/05/21 07:40:57;;;;;;;0.00;0.00;;;;;;;;;;5134089;27;20242;-73
2022/05/21 07:43:24;;;;;;;0.10;0.10;;;;;;;;;;5144781;27;20202;-75
2022/05/21 07:45:51;;;;;;;0.00;0.00;;;;;;;;;;5134146;27;20253;-75
2022/05/21 07:48:18;;;;;;;1.73;1.63;;;;;;;;;;5144534;27;20463;-75
2022/05/21 07:50:46;;;;;;;0.10;0.10;;;;;;;;;;5134450;27;20556;-75
2022/05/21 07:53:12;;;;;;;0.00;0.00;;;;;;;;;;5126641;27;20222;-75
2022/05/21 07:55:39;;;;;;;0.10;0.10;;;;;;;;;;5134388;27;20621;-75
2022/05/21 07:58:07;;;;;;;0.10;0.10;;;;;;;;;;5144341;27;20262;-76
2022/05/21 08:00:33;;;;;;;0.00;0.00;;;;;;;;;;5115934;27;20546;-76
2022/05/21 08:02:59;;;;;;;0.05;0.05;;;;;;;;;;5144379;27;20192;-75
2022/05/21 08:05:26;;;;;;;0.00;0.00;;;;;;;;;;5134079;27;20562;-75
2022/05/21 08:07:55;;;;;;;0.10;0.10;;;;;;;;;;5144190;27;20249;-74
2022/05/21 08:10:22;;;;;;;0.10;0.10;;;;;;;;;;5134067;27;20305;-74
2022/05/21 08:12:49;;;;;;;0.00;0.00;;;;;;;;;;5144036;27;20245;-75
2022/05/21 08:15:18;;;;;;;0.00;0.00;;;;;;;;;;5133720;27;20240;-75
2022/05/21 08:17:44;;;;;;;0.10;0.10;;;;;;;;;;5143700;27;20382;-75
2022/05/21 08:20:11;;;;;;;0.10;0.10;;;;;;;;;;5134055;27;20211;-75
2022/05/21 08:28:06;;;;;;;0.10;0.10;;;;;;;;;;5143627;27;20490;-74
2022/05/21 08:30:34;;;;;;;0.10;0.10;;;;;;;;;;5133682;27;20244;-75
2022/05/21 08:33:00;;;;;;;0.10;0.10;;;;;;;;;;5143629;27;20270;-76
2022/05/21 08:35:27;;;;;;;0.00;0.00;;;;;;;;;;5133695;27;20285;-74
2022/05/21 08:37:53;;;;;;;0.05;0.05;;;;;;;;;;5143229;27;20518;-74
2022/05/21 08:40:19;;;;;;;0.00;0.00;;;;;;;;;;5133215;27;20480;-75
2022/05/21 08:42:49;;;;;;;0.10;0.10;;;;;;;;;;5143441;27;20190;-75
2022/05/21 08:45:18;;;;;;;0.10;0.10;;;;;;;;;;5133456;27;20200;-75
2022/05/21 08:47:48;;;;;;;0.03;0.03;;;;;;;;;;5143357;27;20360;-75
2022/05/21 08:50:15;;;;;;;0.00;0.00;;;;;;;;;;5133359;27;20212;-74
2022/05/21 08:52:43;;;;;;;0.00;0.00;;;;;;;;;;5143118;27;20189;-75
2022/05/21 08:55:12;;;;;;;0.00;0.00;;;;;;;;;;5133555;27;20201;-74
2022/05/21 08:57:42;;;;;;;0.10;0.10;;;;;;;;;;5142870;27;20201;-75
2022/05/21 09:00:12;;;;;;;0.00;0.00;;;;;;;;;;5133386;27;20198;-75
2022/05/21 09:02:38;;;;;;;0.00;0.00;;;;;;;;;;5142658;27;20398;-75
2022/05/21 09:05:08;;;;;;;0.00;0.00;;;;;;;;;;5141923;27;20202;-75
2022/05/21 09:07:41;;;;;;;0.10;0.10;;;;;;;;;;5142766;27;20231;-75
2022/05/21 09:10:16;;;;;;;0.10;0.10;;;;;;;;;;5133459;27;20511;-75
2022/05/21 09:12:45;;;;;;;0.00;0.00;;;;;;;;;;5142766;27;20201;-74
2022/05/21 09:16:54;;;;;;;0.00;0.00;;;;;;;;;;5133386;28;20489;-74
2022/05/21 09:18:03;;;;;;;0.00;0.00;;;;;;;;;;5142787;28;20390;-74
2022/05/21 09:20:32;;;;;;;0.00;0.00;;;;;;;;;;5132851;27;20303;-74
2022/05/21 09:23:00;;;;;;;0.00;0.00;;;;;;;;;;5147067;27;20203;-75
2022/05/21 09:25:27;;;;;;;0.10;0.10;;;;;;;;;;5137419;27;20248;-75
2022/05/21 09:28:01;;;;;;;0.10;0.10;;;;;;;;;;5147251;27;20484;-75
2022/05/21 09:30:29;;;;;;;0.05;0.05;;;;;;;;;;5137263;27;20432;-74
2022/05/21 09:32:56;;;;;;;0.00;0.00;;;;;;;;;;5147138;27;20264;-76
2022/05/21 09:35:24;;;;;;;0.00;0.00;;;;;;;;;;5137316;27;20423;-74
2022/05/21 09:37:52;;;;;;;0.00;0.00;;;;;;;;;;5146570;27;20201;-74
2022/05/21 09:40:23;;;;;;;0.05;0.05;;;;;;;;;;5137135;27;20452;-75
2022/05/21 09:45:34;;;;;;;0.10;0.10;;;;;;;;;;5136726;27;20367;-74
2022/05/21 09:48:14;;;;;;;0.00;0.00;;;;;;;;;;5147028;27;20441;-74
2022/05/21 09:50:44;;;;;;;0.10;0.10;;;;;;;;;;5134608;27;20239;-75
2022/05/21 09:53:26;;;;;;;0.10;0.10;;;;;;;;;;5146858;27;20604;-75
2022/05/21 09:55:58;;;;;;;0.10;0.10;;;;;;;;;;5135412;27;20245;-74
2022/05/21 09:58:25;;;;;;;0.07;0.07;;;;;;;;;;5147046;27;20373;-74
2022/05/21 10:00:53;;;;;;;0.10;0.10;;;;;;;;;;5136345;27;20242;-74
2022/05/21 10:03:35;;;;;;;0.10;0.10;;;;;;;;;;5146589;27;20205;-74
2022/05/21 10:06:01;;;;;;;0.10;0.10;;;;;;;;;;5136153;27;20238;-75
2022/05/21 10:11:21;;;;;;;2.20;2.10;;;;;;;;;;5135859;27;20291;-74
2022/05/21 10:13:48;;;;;;;0.07;0.07;;;;;;;;;;5147027;27;20229;-75
2022/05/21 10:16:19;;;;;;;0.00;0.00;;;;;;;;;;5135862;27;20574;-74
2022/05/21 10:18:49;;;;;;;0.03;0.03;;;;;;;;;;5146572;27;20218;-74
2022/05/21 10:21:19;;;;;;;0.00;0.00;;;;;;;;;;5135760;27;20243;-75
2022/05/21 10:23:47;;;;;;;0.10;0.10;;;;;;;;;;5146526;27;20208;-75
2022/05/21 10:26:26;;;;;;;0.20;0.20;;;;;;;;;;5135383;27;20420;-75
2022/05/21 10:28:57;;;;;;;0.10;0.10;;;;;;;;;;5146783;27;20486;-75
2022/05/21 10:31:33;;;;;;;0.08;0.08;;;;;;;;;;5135450;27;20291;-75
2022/05/21 10:34:11;;;;;;;0.10;0.10;;;;;;;;;;5146130;27;20231;-76
2022/05/21 10:36:43;;;;;;;0.10;0.10;;;;;;;;;;5135207;27;20244;-75
2022/05/21 10:39:29;;;;;;;0.00;0.00;;;;;;;;;;5146428;27;20261;-75
2022/05/21 10:42:06;;;;;;;0.03;0.03;;;;;;;;;;5134956;27;20241;-75
2022/05/21 10:44:41;;;;;;;0.00;0.00;;;;;;;;;;5146643;27;20385;-75
2022/05/21 10:47:17;;;;;;;0.10;0.10;;;;;;;;;;5134610;27;20279;-75
2022/05/21 10:49:57;;;;;;;0.00;0.00;;;;;;;;;;5146299;27;20202;-76
2022/05/21 10:52:29;;;;;;;0.00;0.00;;;;;;;;;;5134333;27;20304;-75
2022/05/21 10:55:04;;;;;;;0.10;0.10;;;;;;;;;;5146123;27;20228;-75
2022/05/21 10:57:43;;;;;;;0.08;0.08;;;;;;;;;;5117469;27;20401;-75
2022/05/21 11:00:10;;;;;;;0.05;0.05;;;;;;;;;;5135805;27;20192;-75
2022/05/21 11:02:52;;;;;;;0.10;0.10;;;;;;;;;;5145412;27;20493;-75
2022/05/21 11:05:40;;;;;;;0.10;0.10;;;;;;;;;;5118108;27;20201;-75
2022/05/21 11:08:09;;;;;;;0.10;0.10;;;;;;;;;;5145207;27;20198;-74
2022/05/21 11:10:39;;;;;;;0.10;0.10;;;;;;;;;;5134983;27;20270;-74
2022/05/21 11:13:09;;;;;;;0.03;0.03;;;;;;;;;;5145132;27;20201;-74
2022/05/21 11:15:39;;;;;;;0.10;0.10;;;;;;;;;;5134223;27;20332;-79
2022/05/21 11:18:08;;;;;;;0.05;0.05;;;;;;;;;;5145071;27;20508;-78
2022/05/21 11:20:36;;;;;;;0.00;0.00;;;;;;;;;;5134981;27;20307;-79
2022/05/21 11:23:06;;;;;;;0.00;0.00;;;;;;;;;;5145129;27;20411;-79
2022/05/21 11:25:35;;;;;;;0.00;0.00;;;;;;;;;;5134666;27;20356;-79
2022/05/21 11:28:09;;;;;;;0.03;0.03;;;;;;;;;;5145191;27;20189;-80
2022/05/21 11:30:37;;;;;;;0.00;0.00;;;;;;;;;;5134853;27;20295;-78
2022/05/21 11:38:54;;;;;;;0.10;0.10;;;;;;;;;;5062148;28;20202;-79
2022/05/21 11:41:28;;;;;;;0.00;0.00;;;;;;;;;;5051852;28;20263;-78
2022/05/21 11:43:57;;;;;;;0.10;0.10;;;;;;;;;;5061560;28;20276;-79
2022/05/21 11:46:35;;;;;;;0.03;0.03;;;;;;;;;;5051693;28;20447;-78
2022/05/21 11:49:16;;;;;;;0.00;0.00;;;;;;;;;;5061945;28;20207;-79
2022/05/21 11:51:42;;;;;;;0.10;0.10;;;;;;;;;;5133909;27;20255;-78
2022/05/21 11:54:08;;;;;;;0.10;0.10;;;;;;;;;;5145424;27;20221;-79
2022/05/21 11:56:50;;;;;;;0.00;0.00;;;;;;;;;;5133709;27;20252;-78
2022/05/21 11:59:17;;;;;;;0.10;0.10;;;;;;;;;;5144422;27;20208;-79
2022/05/21 12:02:02;;;;;;;0.00;0.00;;;;;;;;;;5116184;27;20263;-79
2022/05/21 12:04:50;;;;;;;0.00;0.00;;;;;;;;;;5145363;27;20209;-79
2022/05/21 12:07:36;;;;;;;0.10;0.10;;;;;;;;;;5133086;27;20305;-80
2022/05/21 12:10:04;;;;;;;0.00;0.00;;;;;;;;;;5144708;27;20224;-78
2022/05/21 12:12:31;;;;;;;0.00;0.00;;;;;;;;;;5115912;27;20274;-81
2022/05/21 12:15:13;;;;;;;0.10;0.10;;;;;;;;;;5145018;27;20300;-77
2022/05/21 12:17:58;;;;;;;0.00;0.00;;;;;;;;;;5143247;27;20445;-79
2022/05/21 12:23:49;;;;;;;0.00;0.00;;;;;;;;;;5100566;28;20733;-79
2022/05/21 12:26:19;;;;;;;0.05;0.05;;;;;;;;;;5091547;28;20245;-79
2022/05/21 12:28:49;;;;;;;0.00;0.00;;;;;;;;;;5092529;28;20226;-78
2022/05/21 12:31:21;;;;;;;0.10;0.10;;;;;;;;;;5088995;27;20262;-82
2022/05/21 12:33:54;;;;;;;0.10;0.10;;;;;;;;;;5091587;28;20198;-78
2022/05/21 12:36:27;;;;;;;0.10;0.10;;;;;;;;;;5090372;27;20237;-79
2022/05/21 12:38:55;;;;;;;0.00;0.00;;;;;;;;;;5089680;28;20498;-79
2022/05/21 12:41:24;;;;;;;0.00;0.00;;;;;;;;;;5090278;27;20265;-79
2022/05/21 12:43:51;;;;;;;0.03;0.03;;;;;;;;;;5090455;28;20244;-79
2022/05/21 12:46:19;;;;;;;0.00;0.00;;;;;;;;;;5089279;27;20248;-79
2022/05/21 12:48:49;;;;;;;0.05;0.05;;;;;;;;;;5091533;28;20210;-79
2022/05/21 12:51:23;;;;;;;0.10;0.10;;;;;;;;;;5088539;27;20237;-78
2022/05/21 12:53:51;;;;;;;0.00;0.00;;;;;;;;;;5090786;28;20196;-78
2022/05/21 12:56:20;;;;;;;0.03;0.03;;;;;;;;;;5087858;27;20241;-79
2022/05/21 12:58:46;;;;;;;0.00;0.00;;;;;;;;;;5091532;28;20206;-79
2022/05/21 13:01:23;;;;;;;0.00;0.00;;;;;;;;;;5087330;27;20441;-79
2022/05/21 13:03:49;;;;;;;0.00;0.00;;;;;;;;;;5090657;28;20358;-78
2022/05/21 13:06:20;;;;;;;0.03;0.03;;;;;;;;;;5088189;27;20244;-78
2022/05/21 13:08:47;;;;;;;0.00;0.00;;;;;;;;;;5091266;28;20411;-79
2022/05/21 13:11:17;;;;;;;0.05;0.05;;;;;;;;;;5087165;27;20265;-78
2022/05/21 13:13:46;;;;;;;0.00;0.00;;;;;;;;;;5091772;28;20498;-79
2022/05/21 13:16:15;;;;;;;0.00;0.00;;;;;;;;;;5079771;28;20239;-79
2022/05/21 13:18:46;;;;;;;0.10;0.10;;;;;;;;;;5091935;28;20436;-79
2022/05/21 13:21:19;;;;;;;0.00;0.00;;;;;;;;;;5086613;27;20500;-79
2022/05/21 13:23:59;;;;;;;0.00;0.00;;;;;;;;;;5090966;28;20200;-79
2022/05/21 13:26:27;;;;;;;0.10;0.10;;;;;;;;;;5090371;28;20245;-78
2022/05/21 13:29:11;;;;;;;0.20;0.20;;;;;;;;;;5088514;28;20210;-79
2022/05/21 13:31:37;;;;;;;0.10;0.10;;;;;;;;;;5093317;27;20234;-78
2022/05/21 13:34:03;;;;;;;0.10;0.10;;;;;;;;;;5075721;28;20280;-79
2022/05/21 13:36:34;;;;;;;0.00;0.00;;;;;;;;;;5077939;28;20243;-79
2022/05/21 13:39:05;;;;;;;0.00;0.00;;;;;;;;;;5073523;28;20192;-79
2022/05/21 13:41:33;;;;;;;0.00;0.00;;;;;;;;;;5077997;28;20354;-78
2022/05/21 13:44:01;;;;;;;0.00;0.00;;;;;;;;;;5073315;28;20297;-78
2022/05/21 13:46:30;;;;;;;0.00;0.00;;;;;;;;;;5077002;28;20238;-79
2022/05/21 13:48:58;;;;;;;0.00;0.00;;;;;;;;;;5074651;28;20390;-80
2022/05/21 13:51:26;;;;;;;0.00;0.00;;;;;;;;;;5076012;28;20321;-78
2022/05/21 13:53:54;;;;;;;0.00;0.00;;;;;;;;;;5075032;28;20407;-79
2022/05/21 13:56:33;;;;;;;0.00;0.00;;;;;;;;;;5074572;28;20547;-79
2022/05/21 13:59:05;;;;;;;0.00;0.00;;;;;;;;;;5073154;28;20242;-78
2022/05/21 14:01:35;;;;;;;0.00;0.00;;;;;;;;;;5077329;28;20310;-78
2022/05/21 14:04:06;;;;;;;0.00;0.00;;;;;;;;;;5073250;28;20248;-78
2022/05/21 14:06:34;;;;;;;0.00;0.00;;;;;;;;;;5077647;28;20246;-79
2022/05/21 14:09:03;;;;;;;0.00;0.00;;;;;;;;;;5072808;28;20227;-79
2022/05/21 14:11:30;;;;;;;0.00;0.00;;;;;;;;;;5077117;28;20533;-79
2022/05/21 14:13:58;;;;;;;0.00;0.00;;;;;;;;;;5073984;28;20304;-79
2022/05/21 14:16:27;;;;;;;0.03;0.03;;;;;;;;;;5075296;28;20235;-79
2022/05/21 14:19:04;;;;;;;0.10;0.10;;;;;;;;;;5074749;28;20409;-79
2022/05/21 14:21:32;;;;;;;0.10;0.10;;;;;;;;;;5076824;28;20422;-78
2022/05/21 14:24:15;;;;;;;0.00;0.00;;;;;;;;;;5072736;28;20208;-79
2022/05/21 14:26:52;;;;;;;0.05;0.05;;;;;;;;;;5079773;28;20413;-79
2022/05/21 14:29:32;;;;;;;0.10;0.10;;;;;;;;;;5067585;28;20187;-79
2022/05/21 14:32:11;;;;;;;0.05;0.05;;;;;;;;;;5084506;28;20281;-79
2022/05/21 14:34:39;;;;;;;0.10;0.10;;;;;;;;;;5063987;28;20204;-78
2022/05/21 14:37:05;;;;;;;0.10;0.10;;;;;;;;;;5086320;28;20243;-78
2022/05/21 14:39:31;;;;;;;0.00;0.00;;;;;;;;;;5064165;28;20525;-78
2022/05/21 14:42:00;;;;;;;0.05;0.05;;;;;;;;;;5084028;28;20272;-78
2022/05/21 14:44:31;;;;;;;0.10;0.10;;;;;;;;;;5064604;28;20488;-78
2022/05/21 14:49:45;;;;;;;0.10;0.10;;;;;;;;;;5063982;28;20191;-79
2022/05/21 14:54:57;;;;;;;0.10;0.10;;;;;;;;;;5064319;28;20200;-79
2022/05/21 14:57:24;;;;;;;0.00;0.00;;;;;;;;;;5085877;27;20272;-78
2022/05/21 14:59:50;;;;;;;0.10;0.10;;;;;;;;;;5063591;28;20380;-78
2022/05/21 15:02:27;;;;;;;0.03;0.03;;;;;;;;;;5085571;28;20239;-79
2022/05/21 15:04:56;;;;;;;0.10;0.10;;;;;;;;;;5063439;28;20273;-80
2022/05/21 15:07:24;;;;;;;0.10;0.10;;;;;;;;;;5085526;28;20246;-80
2022/05/21 15:09:52;;;;;;;0.00;0.00;;;;;;;;;;5063329;28;20211;-78
2022/05/21 15:12:18;;;;;;;0.10;0.10;;;;;;;;;;5085466;28;20248;-79
2022/05/21 15:14:45;;;;;;;0.10;0.10;;;;;;;;;;5063370;28;20203;-78
2022/05/21 15:17:11;;;;;;;0.00;0.00;;;;;;;;;;5085250;28;20235;-78
2022/05/21 15:19:38;;;;;;;0.00;0.00;;;;;;;;;;5063437;28;20203;-79
2022/05/21 15:22:07;;;;;;;0.05;0.05;;;;;;;;;;5084999;28;20234;-79
2022/05/21 15:24:33;;;;;;;0.00;0.00;;;;;;;;;;5063324;28;20253;-78
2022/05/21 15:26:59;;;;;;;0.05;0.05;;;;;;;;;;5088487;28;20243;-79
2022/05/21 15:29:26;;;;;;;0.00;0.00;;;;;;;;;;5064033;28;20208;-79
2022/05/21 15:31:52;;;;;;;0.10;0.10;;;;;;;;;;5081554;28;20288;-78
2022/05/21 15:34:18;;;;;;;0.00;0.00;;;;;;;;;;5066195;28;20204;-78
2022/05/21 15:36:46;;;;;;;0.00;0.00;;;;;;;;;;5079688;28;20314;-78